首页
METAR-TAF:

METAR-TAF

机场 :

Fort Bragg, 北卡罗来纳州, 美国

纬度: 35-08N, 经度: 078-56W, 海拔: 74米

当前天气观测

该预报发布于30分钟前的20:02 UTC
风速8节,风向东北
温度 8°C
湿度 76%
气压 1028 hPa
能見度: 16.1公里
散云层高于2100英尺

METAR: KFBG 142002Z AUTO 04008KT 10SM SCT021 08/04 A3037 RMK AO2 SLP288

时间: 15:32 (20:32 UTC)

预报

该预报发布于2小时和32分钟前的18:00 UTC
预报有效从14日的 18点(UTC)到 15日的 24点(UTC)
风速10节,风向东北,有时为15节阵风
能见度10公里或以上
多云层高于1800英尺
阴天层高于2000英尺
成为
从 15日的 01点(UTC)到 15日的 02点(UTC)
风速12节,风向东北,有时为20节阵风
能見度: 8000
阴天层高于1500英尺
小雨, 轻雾
成为
从 15日的 05点(UTC)到 15日的 06点(UTC)
风速15节,风向东北,有时为25节阵风
能見度: 8000
阴天层高于500英尺
小雨, 轻雾
成为
从 15日的 10点(UTC)到 15日的 11点(UTC)
风速15节,风向东北,有时为25节阵风
能見度: 3200
阴天层高于500英尺
大雨
成为
从 15日的 13点(UTC)到 15日的 14点(UTC)
风速10节,风向北转西北
能見度: 8000
阴天层高于200英尺
小雨, 轻雾
成为
从 15日的 16点(UTC)到 15日的 17点(UTC)
风速10节,风向西转西北
能见度10公里或以上
阴天层高于1000英尺

TAF: KFBG 141800Z 1418/1524 05010G15KT 9999 BKN018 OVC020 QNH3030INS BECMG 1501/1502 05012G20KT 8000 -RA BR OVC015 QNH3024INS BECMG 1505/1506 05015G25KT 8000 -RA BR OVC005 540206 QNH3012INS BECMG 1510/1511 05015G25KT 3200 +RA OVC005 540206 QNH3001INS BECMG 1513/1514 33010KT 8000 -RA BR OVC002 510102 QNH2994INS BECMG 1516/1517 30010KT 9999 NSW OVC010 QNH2990INS TX10/1420Z TN05/1511Z

超过4000个机场的气象观测和天气预报(METAR&TAF报告)。

可查询的气象台以黄色和红色小点在地图上表示。

将鼠标移到小点上方,可查看气象台名称。

然后点击查看天气观测和预报。

如需切换地图:点击带黑十字的绿色按钮放大地图;点击带横线的绿色按钮缩小地图;或者点击绿色箭头查看邻近地区的地图。


METAR-TAF: